createdAt,value
2018-07-15T00:01:14.154Z,98.90
2018-07-15T00:03:42.354Z,99.00
2018-07-15T00:06:10.542Z,98.90
2018-07-15T00:08:39.011Z,98.10
2018-07-15T00:11:08.166Z,98.30
2018-07-15T00:13:36.828Z,98.30
2018-07-15T00:16:05.015Z,97.70
2018-07-15T00:18:33.998Z,98.10
2018-07-15T00:21:02.346Z,98.10
2018-07-15T00:23:30.963Z,98.20
2018-07-15T00:25:59.142Z,98.40
2018-07-15T00:28:28.505Z,98.80
2018-07-15T00:30:56.702Z,99.20
2018-07-15T00:33:25.059Z,99.40
2018-07-15T00:35:53.254Z,99.30
2018-07-15T00:38:21.634Z,99.50
2018-07-15T00:40:50.325Z,99.40
2018-07-15T00:43:19.734Z,99.50
2018-07-15T00:45:47.939Z,99.90
2018-07-15T00:48:16.772Z,99.80
2018-07-15T00:50:44.977Z,99.80
2018-07-15T00:53:13.611Z,99.70
2018-07-15T00:55:41.827Z,99.50
2018-07-15T00:58:10.531Z,99.80
2018-07-15T01:00:43.986Z,99.90
2018-07-15T01:03:12.194Z,99.90
2018-07-15T01:05:40.410Z,99.90
2018-07-15T01:08:09.021Z,99.90
2018-07-15T01:10:37.750Z,99.90
2018-07-15T01:13:06.804Z,99.90
2018-07-15T01:15:35.024Z,99.90
2018-07-15T01:18:03.253Z,99.90
2018-07-15T01:20:31.468Z,99.90
2018-07-15T01:23:00.152Z,99.90
2018-07-15T01:25:28.454Z,99.90
2018-07-15T01:27:57.198Z,99.90
2018-07-15T01:30:25.411Z,99.90
2018-07-15T01:32:54.081Z,99.90
2018-07-15T01:35:22.937Z,99.90
2018-07-15T01:37:51.163Z,99.90
2018-07-15T01:40:19.387Z,99.90
2018-07-15T01:42:47.866Z,99.90
2018-07-15T01:45:16.560Z,99.90
2018-07-15T01:47:44.806Z,99.90
2018-07-15T01:50:13.022Z,99.90
2018-07-15T01:52:41.584Z,99.90
2018-07-15T01:55:09.786Z,99.90
2018-07-15T01:57:38.398Z,99.90
2018-07-15T02:00:07.021Z,99.90
2018-07-15T02:02:35.226Z,99.90
2018-07-15T02:05:03.655Z,99.90
2018-07-15T02:07:32.270Z,99.90
2018-07-15T02:10:00.526Z,99.90
2018-07-15T02:12:29.503Z,99.90
2018-07-15T02:14:57.713Z,99.90
2018-07-15T02:17:26.606Z,99.90
2018-07-15T02:19:54.803Z,99.90
2018-07-15T02:22:23.086Z,99.90
2018-07-15T02:24:51.291Z,99.90
2018-07-15T02:27:20.060Z,99.90
2018-07-15T02:29:48.262Z,99.90
2018-07-15T02:32:17.167Z,99.90
2018-07-15T02:34:45.371Z,99.90
2018-07-15T02:37:13.577Z,99.90
2018-07-15T02:39:41.783Z,99.90
2018-07-15T02:42:09.994Z,99.90
2018-07-15T02:44:38.699Z,99.90
2018-07-15T02:47:06.915Z,99.90
2018-07-15T02:49:35.122Z,99.90
2018-07-15T02:52:03.886Z,99.90
2018-07-15T02:54:32.094Z,99.90
2018-07-15T02:57:00.579Z,99.90
2018-07-15T02:59:28.795Z,99.90
2018-07-15T03:01:57.007Z,99.90
2018-07-15T03:04:25.220Z,99.90
2018-07-15T03:06:53.418Z,99.90
2018-07-15T03:09:22.109Z,99.90
2018-07-15T03:11:50.923Z,99.90
2018-07-15T03:14:19.759Z,99.90
2018-07-15T03:16:47.965Z,99.90
2018-07-15T03:19:16.161Z,99.90
2018-07-15T03:21:45.005Z,99.90
2018-07-15T03:24:13.207Z,99.90
2018-07-15T03:26:41.941Z,99.90
2018-07-15T03:29:10.163Z,99.90
2018-07-15T03:31:45.000Z,99.90
2018-07-15T03:34:13.278Z,99.90
2018-07-15T03:36:41.419Z,99.90
2018-07-15T03:39:10.223Z,99.90
2018-07-15T03:41:38.419Z,99.90
2018-07-15T03:44:07.427Z,99.90
2018-07-15T03:46:35.750Z,99.90
2018-07-15T03:49:04.751Z,99.90
2018-07-15T03:51:32.951Z,99.90
2018-07-15T03:54:01.379Z,99.90
2018-07-15T03:56:30.124Z,99.90
2018-07-15T03:58:58.779Z,99.90
2018-07-15T04:01:26.996Z,99.90
2018-07-15T04:03:55.227Z,99.90
2018-07-15T04:06:23.836Z,99.90
2018-07-15T04:08:52.432Z,99.90
2018-07-15T04:11:21.098Z,99.90
2018-07-15T04:13:50.236Z,99.90
2018-07-15T04:16:18.430Z,99.90
2018-07-15T04:18:46.632Z,99.90
2018-07-15T04:21:15.224Z,99.90
2018-07-15T04:23:43.402Z,99.90
2018-07-15T04:26:15.550Z,99.90
2018-07-15T04:28:43.743Z,99.90
2018-07-15T04:31:11.953Z,99.90
2018-07-15T04:33:40.623Z,99.90
2018-07-15T04:36:08.817Z,99.90
2018-07-15T04:38:37.019Z,99.90
2018-07-15T04:41:05.246Z,99.90
2018-07-15T04:43:33.891Z,99.90
2018-07-15T04:46:02.100Z,99.90
2018-07-15T04:48:30.738Z,99.90
2018-07-15T04:50:58.934Z,99.90
2018-07-15T04:53:27.479Z,99.90
2018-07-15T04:56:02.291Z,99.90
2018-07-15T04:58:30.731Z,99.90
2018-07-15T05:01:01.071Z,99.90
2018-07-15T05:03:29.731Z,99.90
2018-07-15T05:05:57.938Z,99.90
2018-07-15T05:08:26.810Z,99.90
2018-07-15T05:10:55.010Z,99.90
2018-07-15T05:13:23.771Z,99.90
2018-07-15T05:15:51.985Z,99.90
2018-07-15T05:18:20.199Z,99.90
2018-07-15T05:20:48.399Z,99.90
2018-07-15T05:23:16.582Z,99.90
2018-07-15T05:25:44.863Z,99.90
2018-07-15T05:28:13.211Z,99.90
2018-07-15T05:30:41.387Z,99.90
2018-07-15T05:33:10.195Z,99.90
2018-07-15T05:35:38.386Z,99.90
2018-07-15T05:38:06.570Z,99.70
2018-07-15T05:40:34.939Z,99.80
2018-07-15T05:43:05.730Z,99.90
2018-07-15T05:45:33.916Z,99.90
2018-07-15T05:48:02.771Z,99.70
2018-07-15T05:50:30.992Z,99.80
2018-07-15T05:52:59.651Z,99.80
2018-07-15T05:55:27.862Z,99.40
2018-07-15T05:57:56.429Z,98.10
2018-07-15T06:00:25.004Z,98.50
2018-07-15T06:02:53.238Z,97.60
2018-07-15T06:05:21.447Z,98.20
2018-07-15T06:07:49.655Z,97.80
2018-07-15T06:10:18.287Z,96.40
2018-07-15T06:12:46.792Z,96.70
2018-07-15T06:15:14.978Z,96.20
2018-07-15T06:17:43.183Z,96.40
2018-07-15T06:20:11.400Z,95.20
2018-07-15T06:22:39.664Z,95.40
2018-07-15T06:25:07.880Z,95.50
2018-07-15T06:27:36.960Z,95.10
2018-07-15T06:30:05.183Z,94.90
2018-07-15T06:32:33.879Z,94.30
2018-07-15T06:35:02.404Z,94.40
2018-07-15T06:37:37.544Z,93.60
2018-07-15T06:40:06.270Z,93.10
2018-07-15T06:42:34.479Z,92.10
2018-07-15T06:45:03.126Z,91.60
2018-07-15T06:47:31.304Z,90.20
2018-07-15T06:49:59.501Z,87.20
2018-07-15T06:52:28.263Z,85.30
2018-07-15T06:54:56.458Z,83.60
2018-07-15T06:57:25.087Z,79.00
2018-07-15T06:59:53.342Z,77.00
2018-07-15T07:02:21.555Z,74.40
2018-07-15T07:04:50.578Z,70.50
2018-07-15T07:07:18.793Z,68.90
2018-07-15T07:09:47.522Z,67.00
2018-07-15T07:12:16.107Z,66.40
2018-07-15T07:14:44.291Z,61.70
2018-07-15T07:17:12.487Z,61.00
2018-07-15T07:19:40.697Z,59.60
2018-07-15T07:22:08.900Z,59.50
2018-07-15T07:24:37.168Z,56.60
2018-07-15T07:27:05.534Z,56.70
2018-07-15T07:29:34.056Z,57.90
2018-07-15T07:32:02.894Z,56.20
2018-07-15T07:34:31.111Z,54.60
2018-07-15T07:36:59.767Z,51.80
2018-07-15T07:39:27.956Z,51.90
2018-07-15T07:41:56.158Z,47.20
2018-07-15T07:44:24.707Z,51.00
2018-07-15T07:46:52.944Z,47.80
2018-07-15T07:49:21.382Z,50.00
2018-07-15T07:51:52.258Z,48.30
2018-07-15T07:54:20.490Z,48.70
2018-07-15T07:56:49.159Z,49.40
2018-07-15T07:59:17.358Z,47.50
2018-07-15T08:01:45.556Z,46.40
2018-07-15T08:04:13.756Z,45.00
2018-07-15T08:06:41.971Z,44.80
2018-07-15T08:09:10.838Z,44.40
2018-07-15T08:11:39.027Z,44.70
2018-07-15T08:14:07.603Z,42.80
2018-07-15T08:16:36.019Z,43.60
2018-07-15T08:19:04.221Z,43.60
2018-07-15T08:21:32.407Z,43.20
2018-07-15T08:24:00.992Z,40.60
2018-07-15T08:26:29.798Z,39.80
2018-07-15T08:28:58.475Z,38.90
2018-07-15T08:31:26.669Z,37.80
2018-07-15T08:33:55.250Z,39.70
2018-07-15T08:36:23.468Z,39.60
2018-07-15T08:38:51.906Z,37.60
2018-07-15T08:41:20.093Z,38.20
2018-07-15T08:43:48.499Z,36.80
2018-07-15T08:46:16.699Z,36.60
2018-07-15T08:48:44.890Z,35.90
2018-07-15T08:51:16.828Z,36.90
2018-07-15T08:53:45.598Z,36.50
2018-07-15T08:56:14.358Z,35.40
2018-07-15T08:58:42.538Z,33.20
2018-07-15T09:01:10.737Z,34.10
2018-07-15T09:03:38.935Z,34.10
2018-07-15T09:06:07.150Z,33.90
2018-07-15T09:08:35.551Z,31.40
2018-07-15T09:11:04.157Z,32.90
2018-07-15T09:13:32.603Z,31.60
2018-07-15T09:16:01.407Z,32.10
2018-07-15T09:18:29.623Z,32.50
2018-07-15T09:20:57.814Z,31.10
2018-07-15T09:23:26.031Z,30.80
2018-07-15T09:25:54.922Z,30.40
2018-07-15T09:28:23.484Z,30.20
2018-07-15T09:30:52.313Z,29.20
2018-07-15T09:33:21.941Z,30.00
2018-07-15T09:35:50.161Z,31.50
2018-07-15T09:38:18.343Z,31.20
2018-07-15T09:40:46.555Z,31.20
2018-07-15T09:43:15.397Z,29.90
2018-07-15T09:45:43.606Z,28.70
2018-07-15T09:48:11.810Z,28.90
2018-07-15T09:50:40.063Z,28.40
2018-07-15T09:53:08.436Z,27.30
2018-07-15T09:55:36.631Z,28.00
2018-07-15T09:58:05.364Z,27.90
2018-07-15T10:00:40.132Z,28.70
2018-07-15T10:03:08.714Z,28.70
2018-07-15T10:05:36.904Z,27.20
2018-07-15T10:08:05.111Z,27.10
2018-07-15T10:10:33.774Z,25.30
2018-07-15T10:13:02.217Z,26.30
2018-07-15T10:15:30.415Z,25.90
2018-07-15T10:17:58.643Z,27.30
2018-07-15T10:20:27.385Z,25.90
2018-07-15T10:22:55.644Z,25.40
2018-07-15T10:25:23.839Z,25.40
2018-07-15T10:27:52.461Z,26.30
2018-07-15T10:30:20.669Z,26.60
2018-07-15T10:32:49.407Z,26.60
2018-07-15T10:35:17.603Z,27.20
2018-07-15T10:37:45.818Z,26.50
2018-07-15T10:40:14.057Z,27.70
2018-07-15T10:42:42.263Z,28.10
2018-07-15T10:45:10.758Z,28.20
2018-07-15T10:47:39.482Z,28.70
2018-07-15T10:50:08.409Z,28.40
2018-07-15T10:52:36.906Z,25.80
2018-07-15T10:55:05.471Z,27.10
2018-07-15T10:57:33.954Z,27.90
2018-07-15T11:00:02.625Z,26.90
2018-07-15T11:02:30.839Z,27.70
2018-07-15T11:04:59.045Z,27.00
2018-07-15T11:07:27.415Z,27.20
2018-07-15T11:10:01.951Z,27.90
2018-07-15T11:12:30.458Z,29.40
2018-07-15T11:14:58.944Z,30.30
2018-07-15T11:17:27.167Z,32.00
2018-07-15T11:19:55.394Z,32.30
2018-07-15T11:22:23.688Z,34.20
2018-07-15T11:24:51.871Z,31.60
2018-07-15T11:27:20.606Z,32.50
2018-07-15T11:29:48.830Z,32.90
2018-07-15T11:32:17.347Z,33.50
2018-07-15T11:34:45.545Z,35.40
2018-07-15T11:37:14.144Z,36.50
2018-07-15T11:39:42.340Z,36.30
2018-07-15T11:42:10.548Z,38.80
2018-07-15T11:44:39.244Z,40.50
2018-07-15T11:47:08.152Z,40.00
2018-07-15T11:49:36.362Z,41.00
2018-07-15T11:52:04.935Z,43.00
2018-07-15T11:54:36.222Z,43.70
2018-07-15T11:57:04.702Z,44.50
2018-07-15T11:59:32.915Z,45.70
2018-07-15T12:02:01.210Z,47.90
2018-07-15T12:04:29.394Z,51.90
2018-07-15T12:06:57.609Z,53.10
2018-07-15T12:09:26.948Z,54.80
2018-07-15T12:11:55.699Z,55.40
2018-07-15T12:14:23.936Z,57.10
2018-07-15T12:16:52.159Z,58.60
2018-07-15T12:19:20.466Z,58.20
2018-07-15T12:21:48.695Z,58.40
2018-07-15T12:24:17.282Z,58.70
2018-07-15T12:26:45.521Z,57.50
2018-07-15T12:29:13.718Z,58.90
2018-07-15T12:31:46.786Z,60.50
2018-07-15T12:34:16.854Z,64.30
2018-07-15T12:36:45.089Z,70.70
2018-07-15T12:39:13.288Z,78.60
2018-07-15T12:41:41.551Z,83.10
2018-07-15T12:44:10.155Z,86.00
2018-07-15T12:46:38.350Z,88.80
2018-07-15T12:49:07.135Z,82.10
2018-07-15T12:51:35.370Z,85.30
2018-07-15T12:54:03.853Z,87.10
2018-07-15T12:56:32.358Z,91.30
2018-07-15T13:01:38.328Z,91.70
2018-07-15T13:04:06.518Z,96.20
2018-07-15T13:06:34.710Z,95.50
2018-07-15T13:09:12.008Z,96.90
2018-07-15T13:11:40.209Z,95.80
2018-07-15T13:14:09.198Z,94.80
2018-07-15T13:16:37.417Z,99.90
2018-07-15T13:19:05.667Z,98.80
2018-07-15T13:21:34.048Z,99.90
2018-07-15T13:24:02.255Z,99.90
2018-07-15T13:26:30.540Z,99.90
2018-07-15T13:28:58.781Z,99.90
2018-07-15T13:31:27.160Z,99.90
2018-07-15T13:33:55.562Z,99.90
2018-07-15T13:36:23.754Z,99.20
2018-07-15T13:38:51.946Z,98.10
2018-07-15T13:41:20.135Z,96.50
2018-07-15T13:43:48.616Z,95.70
2018-07-15T13:46:17.205Z,97.20
2018-07-15T13:48:45.666Z,95.60
2018-07-15T13:51:13.884Z,93.90
2018-07-15T13:53:42.417Z,92.30
2018-07-15T13:56:11.346Z,93.90
2018-07-15T13:58:46.275Z,91.20
2018-07-15T14:01:14.917Z,91.00
2018-07-15T14:03:43.135Z,90.80
2018-07-15T14:06:11.341Z,88.90
2018-07-15T14:08:39.892Z,88.10
2018-07-15T14:11:08.090Z,90.60
2018-07-15T14:13:36.824Z,91.80
2018-07-15T14:16:05.088Z,91.20
2018-07-15T14:23:29.003Z,91.10
2018-07-15T14:25:57.378Z,86.10
2018-07-15T14:30:53.611Z,87.40
2018-07-15T14:33:24.342Z,84.30
2018-07-15T14:35:52.579Z,82.60
2018-07-15T14:38:21.179Z,78.20
2018-07-15T14:40:49.380Z,78.50
2018-07-15T14:43:18.008Z,80.20
2018-07-15T14:45:46.923Z,83.50
2018-07-15T14:50:43.914Z,80.20
2018-07-15T14:53:12.348Z,84.80
2018-07-15T14:55:40.726Z,81.50
2018-07-15T14:58:11.853Z,84.20
2018-07-15T15:00:46.606Z,78.80
2018-07-15T15:03:14.810Z,72.40
2018-07-15T15:05:43.190Z,77.50
2018-07-15T15:08:11.373Z,73.80
2018-07-15T15:10:40.043Z,74.20
2018-07-15T15:13:08.846Z,80.30
2018-07-15T15:15:37.334Z,73.50
2018-07-15T15:18:05.543Z,72.20
2018-07-15T15:20:33.736Z,78.00
2018-07-15T15:23:01.967Z,76.30
2018-07-15T15:25:30.161Z,74.50
2018-07-15T15:27:59.470Z,73.90
2018-07-15T15:30:27.680Z,75.20
2018-07-15T15:32:56.352Z,74.80
2018-07-15T15:35:24.555Z,77.30
2018-07-15T15:37:53.148Z,79.30
2018-07-15T15:40:21.349Z,82.30
2018-07-15T15:42:49.535Z,75.10
2018-07-15T15:45:18.004Z,77.90
2018-07-15T15:50:20.781Z,75.00
2018-07-15T15:52:49.466Z,74.60
2018-07-15T15:55:17.674Z,74.50
2018-07-15T15:57:45.891Z,75.00
2018-07-15T16:00:14.610Z,72.90
2018-07-15T16:02:42.799Z,74.20
2018-07-15T16:05:11.005Z,75.00
2018-07-15T16:07:39.219Z,76.10
2018-07-15T16:10:07.574Z,74.70
2018-07-15T16:12:36.167Z,72.80
2018-07-15T16:15:04.559Z,74.90
2018-07-15T16:17:33.150Z,71.70
2018-07-15T16:20:01.383Z,71.10
2018-07-15T16:22:30.126Z,75.30
2018-07-15T16:24:58.534Z,73.50
2018-07-15T16:27:26.739Z,74.10
2018-07-15T16:29:54.939Z,72.90
2018-07-15T16:32:23.588Z,72.60
2018-07-15T16:34:52.320Z,71.80
2018-07-15T16:37:20.518Z,71.80
2018-07-15T16:39:48.727Z,71.60
2018-07-15T16:42:16.935Z,70.60
2018-07-15T16:44:45.499Z,70.80
2018-07-15T16:47:13.849Z,72.20
2018-07-15T16:49:42.497Z,71.20
2018-07-15T16:52:11.095Z,69.60
2018-07-15T16:54:39.300Z,69.00
2018-07-15T16:57:07.794Z,68.60
2018-07-15T16:59:36.001Z,73.20
2018-07-15T17:02:04.237Z,70.70
2018-07-15T17:04:32.713Z,70.70
2018-07-15T17:07:01.327Z,73.60
2018-07-15T17:09:30.151Z,73.10
2018-07-15T17:11:58.885Z,73.20
2018-07-15T17:14:27.094Z,75.10
2018-07-15T17:16:55.859Z,74.80
2018-07-15T17:19:24.072Z,76.40
2018-07-15T17:21:52.747Z,77.90
2018-07-15T17:24:20.936Z,79.50
2018-07-15T17:26:49.140Z,80.40
2018-07-15T17:29:17.374Z,81.70
2018-07-15T17:31:47.138Z,81.60
2018-07-15T17:34:15.926Z,81.90
2018-07-15T17:36:44.139Z,84.00
2018-07-15T17:39:12.593Z,84.70
2018-07-15T17:41:40.815Z,84.90
2018-07-15T17:44:09.315Z,84.70
2018-07-15T17:46:37.631Z,86.30
2018-07-15T17:49:06.334Z,85.30
2018-07-15T17:51:34.651Z,86.50
2018-07-15T17:54:03.459Z,84.90
2018-07-15T17:56:31.707Z,87.10
2018-07-15T17:58:59.854Z,84.30
2018-07-15T18:01:28.227Z,87.00
2018-07-15T18:03:56.803Z,86.30
2018-07-15T18:06:25.018Z,86.10
2018-07-15T18:08:53.577Z,87.50
2018-07-15T18:11:21.863Z,88.00
2018-07-15T18:13:53.510Z,87.00
2018-07-15T18:16:21.802Z,85.90
2018-07-15T18:18:50.087Z,87.30
2018-07-15T18:21:18.499Z,86.80
2018-07-15T18:23:46.732Z,86.80
2018-07-15T18:26:15.065Z,86.90
2018-07-15T18:28:43.610Z,87.90
2018-07-15T18:31:11.820Z,86.30
2018-07-15T18:33:40.477Z,88.70
2018-07-15T18:36:08.996Z,89.20
2018-07-15T18:38:37.174Z,88.80
2018-07-15T18:41:05.490Z,90.40
2018-07-15T18:43:34.342Z,91.00
2018-07-15T18:46:02.868Z,91.60
2018-07-15T18:48:31.074Z,91.20
2018-07-15T18:50:59.533Z,90.70
2018-07-15T18:53:27.894Z,92.00
2018-07-15T18:55:56.111Z,92.40
2018-07-15T18:58:24.923Z,92.80
2018-07-15T19:00:53.103Z,93.10
2018-07-15T19:03:21.306Z,92.70
2018-07-15T19:05:49.861Z,93.10
2018-07-15T19:08:18.055Z,93.20
2018-07-15T19:10:50.301Z,94.00
2018-07-15T19:13:18.830Z,94.60
2018-07-15T19:15:47.028Z,94.10
2018-07-15T19:18:16.620Z,94.00
2018-07-15T19:20:45.276Z,94.00
2018-07-15T19:23:13.510Z,94.70
2018-07-15T19:25:41.752Z,94.80
2018-07-15T19:28:10.197Z,95.00
2018-07-15T19:30:38.430Z,95.20
2018-07-15T19:33:07.264Z,95.10
2018-07-15T19:35:35.456Z,95.00
2018-07-15T19:38:04.532Z,95.50
2018-07-15T19:40:32.761Z,95.90
2018-07-15T19:43:00.964Z,95.70
2018-07-15T19:45:29.715Z,96.00
2018-07-15T19:47:58.493Z,96.10
2018-07-15T19:50:26.717Z,96.20
2018-07-15T19:52:55.080Z,96.20
2018-07-15T19:55:23.276Z,96.20
2018-07-15T19:57:51.764Z,96.30
2018-07-15T20:00:20.318Z,96.70
2018-07-15T20:02:48.719Z,96.50
2018-07-15T20:05:17.344Z,97.10
2018-07-15T20:07:45.710Z,97.00
2018-07-15T20:10:13.898Z,97.40
2018-07-15T20:12:42.582Z,97.80
2018-07-15T20:15:10.838Z,97.50
2018-07-15T20:17:39.047Z,97.40
2018-07-15T20:20:09.342Z,97.90
2018-07-15T20:22:37.550Z,98.00
2018-07-15T20:25:09.178Z,98.10
2018-07-15T20:27:37.388Z,98.40
2018-07-15T20:30:06.250Z,98.50
2018-07-15T20:32:34.851Z,98.70
2018-07-15T20:35:03.291Z,98.50
2018-07-15T20:37:31.550Z,98.50
2018-07-15T20:39:59.788Z,99.10
2018-07-15T20:42:27.994Z,99.20
2018-07-15T20:44:56.529Z,98.70
2018-07-15T20:47:24.740Z,98.60
2018-07-15T20:49:53.312Z,99.20
2018-07-15T20:52:21.871Z,99.70
2018-07-15T20:54:50.065Z,99.90
2018-07-15T20:57:18.513Z,99.80
2018-07-15T20:59:47.098Z,99.70
2018-07-15T21:02:15.606Z,99.30
2018-07-15T21:04:43.797Z,99.60
2018-07-15T21:07:11.998Z,99.20
2018-07-15T21:09:40.227Z,99.40
2018-07-15T21:12:08.963Z,99.50
2018-07-15T21:14:37.547Z,99.40
2018-07-15T21:17:05.857Z,99.50
2018-07-15T21:19:34.489Z,99.70
2018-07-15T21:22:03.163Z,99.90
2018-07-15T21:24:31.372Z,99.90
2018-07-15T21:26:59.566Z,99.90
2018-07-15T21:29:28.182Z,99.90
2018-07-15T21:31:56.849Z,99.90
2018-07-15T21:34:25.024Z,99.90
2018-07-15T21:36:53.226Z,99.90
2018-07-15T21:39:21.449Z,99.90
2018-07-15T21:41:49.683Z,99.90
2018-07-15T21:44:23.882Z,99.90
2018-07-15T21:46:52.059Z,99.90
2018-07-15T21:49:32.923Z,99.90
2018-07-15T21:52:01.564Z,99.90
2018-07-15T21:54:29.796Z,99.90
2018-07-15T21:56:58.123Z,99.90
2018-07-15T21:59:26.819Z,99.90
2018-07-15T22:01:55.017Z,99.90
2018-07-15T22:04:23.678Z,99.90
2018-07-15T22:07:06.726Z,99.90
2018-07-15T22:09:56.854Z,99.90
2018-07-15T22:12:25.726Z,99.90
2018-07-15T22:14:53.906Z,99.90
2018-07-15T22:17:22.139Z,99.90
2018-07-15T22:19:50.735Z,99.90
2018-07-15T22:22:18.963Z,99.90
2018-07-15T22:24:47.152Z,99.90
2018-07-15T22:27:15.359Z,99.90
2018-07-15T22:29:43.551Z,99.90
2018-07-15T22:32:12.228Z,99.90
2018-07-15T22:34:40.631Z,99.90
2018-07-15T22:37:08.868Z,99.90
2018-07-15T22:39:37.070Z,99.90
2018-07-15T22:42:05.280Z,99.90
2018-07-15T22:44:34.003Z,99.90
2018-07-15T22:47:02.207Z,99.90
2018-07-15T22:49:30.845Z,99.90
2018-07-15T22:51:59.343Z,99.90
2018-07-15T22:54:27.530Z,99.90
2018-07-15T22:56:56.383Z,99.90
2018-07-15T22:59:28.782Z,99.90
2018-07-15T23:01:56.973Z,99.90
2018-07-15T23:04:36.528Z,99.90
2018-07-15T23:07:04.748Z,99.90
2018-07-15T23:09:33.747Z,99.90
2018-07-15T23:12:02.375Z,99.90
2018-07-15T23:14:30.575Z,99.90
2018-07-15T23:16:58.799Z,99.90
2018-07-15T23:19:27.023Z,99.90
2018-07-15T23:24:22.464Z,99.90
2018-07-15T23:26:50.679Z,99.90
2018-07-15T23:29:18.870Z,99.90
2018-07-15T23:31:47.324Z,99.90
2018-07-15T23:34:15.511Z,99.90
2018-07-15T23:36:43.711Z,99.90
2018-07-15T23:39:11.918Z,99.90
2018-07-15T23:41:40.135Z,99.90
2018-07-15T23:44:08.546Z,99.90
2018-07-15T23:46:37.175Z,99.90
2018-07-15T23:49:13.705Z,99.90
2018-07-15T23:51:42.111Z,99.90
2018-07-15T23:54:10.722Z,99.90
2018-07-15T23:59:07.430Z,99.90
